Time;durP1;ratioP1;P1;durP2;ratioP2;P2;SDS_P1;SDS_P2;PMS_P1;PMS_P2;Temp;Humidity;BMP_temperature;BMP_pressure;BME280_temperature;BME280_humidity;BME280_pressure;Samples;Min_cycle;Max_cycle;Signal;HPM_P1;HPM_P2
2023/03/16 00:53:11;;;;;;;13.73;5.10;;;;;;;;;;6263573;22;20190;-91
2023/03/16 00:56:16;;;;;;;11.47;4.60;;;;;;;;;;6243577;23;20162;-90
2023/03/16 00:59:25;;;;;;;11.30;5.13;;;;;;;;;;6236220;23;20199;-90
2023/03/16 01:02:30;;;;;;;13.63;6.03;;;;;;;;;;6244752;22;20155;-93
2023/03/16 01:05:40;;;;;;;11.00;5.67;;;;;;;;;;6244718;23;20645;-92
2023/03/16 01:08:47;;;;;;;11.07;5.00;;;;;;;;;;6244587;23;20245;-88
2023/03/16 01:11:53;;;;;;;13.03;5.60;;;;;;;;;;6261772;22;20210;-91
2023/03/16 01:14:59;;;;;;;10.77;5.70;;;;;;;;;;6244267;23;20174;-90
2023/03/16 01:18:05;;;;;;;16.77;5.90;;;;;;;;;;6243286;23;20151;-93
2023/03/16 01:21:12;;;;;;;16.97;6.50;;;;;;;;;;6243655;23;20193;-89
2023/03/16 01:24:19;;;;;;;19.23;5.97;;;;;;;;;;6244717;23;20190;-89
2023/03/16 01:27:25;;;;;;;12.90;5.90;;;;;;;;;;6244510;23;20170;-90
2023/03/16 01:30:30;;;;;;;15.83;6.03;;;;;;;;;;6243952;23;20186;-91
2023/03/16 01:33:35;;;;;;;15.27;6.53;;;;;;;;;;6243674;22;20230;-88
2023/03/16 01:36:43;;;;;;;13.23;5.23;;;;;;;;;;6243014;22;20231;-87
2023/03/16 01:39:50;;;;;;;17.40;6.77;;;;;;;;;;6242466;23;20194;-87
2023/03/16 01:43:01;;;;;;;17.13;6.67;;;;;;;;;;6243336;23;20213;-92
2023/03/16 01:46:16;;;;;;;21.27;6.43;;;;;;;;;;6243069;23;20158;-90
2023/03/16 01:49:25;;;;;;;24.87;8.63;;;;;;;;;;6243916;22;20211;-93
2023/03/16 01:52:33;;;;;;;29.13;9.57;;;;;;;;;;6243410;22;20190;-91
2023/03/16 01:55:42;;;;;;;16.07;7.20;;;;;;;;;;6244153;23;20166;-89
2023/03/16 01:58:49;;;;;;;11.80;5.60;;;;;;;;;;6242171;22;20166;-91
2023/03/16 02:01:55;;;;;;;10.83;5.43;;;;;;;;;;6239652;23;20170;-93
2023/03/16 02:05:03;;;;;;;12.13;6.53;;;;;;;;;;6242228;22;20150;-93
2023/03/16 02:08:09;;;;;;;13.57;6.83;;;;;;;;;;6241590;23;20171;-89
2023/03/16 02:11:16;;;;;;;22.17;8.77;;;;;;;;;;6241458;23;20173;-92
2023/03/16 02:14:34;;;;;;;31.73;8.80;;;;;;;;;;6241184;23;20190;-90
2023/03/16 02:17:41;;;;;;;22.50;9.10;;;;;;;;;;6240481;23;20170;-90
2023/03/16 02:20:55;;;;;;;20.73;8.97;;;;;;;;;;6239750;22;20523;-92
2023/03/16 02:24:03;;;;;;;30.03;8.23;;;;;;;;;;6240763;23;20166;-89
2023/03/16 02:27:11;;;;;;;27.20;7.70;;;;;;;;;;6241634;23;20167;-90
2023/03/16 02:30:20;;;;;;;22.73;8.30;;;;;;;;;;6243760;23;20183;-92
2023/03/16 02:33:38;;;;;;;18.70;7.80;;;;;;;;;;6242567;22;20150;-91
2023/03/16 02:36:47;;;;;;;18.60;7.77;;;;;;;;;;6241935;22;20166;-89
2023/03/16 02:39:54;;;;;;;17.93;7.77;;;;;;;;;;6241868;23;20197;-94
2023/03/16 02:43:02;;;;;;;16.23;8.23;;;;;;;;;;6241694;23;20245;-92
2023/03/16 02:46:10;;;;;;;24.00;8.73;;;;;;;;;;6243509;23;20206;-91
2023/03/16 02:49:18;;;;;;;21.13;8.53;;;;;;;;;;6242499;22;20185;-92
2023/03/16 02:52:24;;;;;;;19.93;8.70;;;;;;;;;;6242809;22;20190;-94
2023/03/16 02:55:29;;;;;;;19.13;8.47;;;;;;;;;;6242964;23;20209;-90
2023/03/16 02:58:35;;;;;;;32.83;8.23;;;;;;;;;;6242746;23;20202;-91
2023/03/16 03:01:45;;;;;;;29.47;8.47;;;;;;;;;;6239665;23;20194;-90
2023/03/16 03:04:53;;;;;;;45.17;17.50;;;;;;;;;;6241097;22;20177;-91
2023/03/16 03:07:58;;;;;;;31.17;8.63;;;;;;;;;;6241277;22;20166;-92
2023/03/16 03:11:05;;;;;;;20.87;8.33;;;;;;;;;;6239219;23;20173;-90
2023/03/16 03:14:15;;;;;;;18.47;8.60;;;;;;;;;;6239098;23;20178;-91
2023/03/16 03:17:28;;;;;;;21.70;8.40;;;;;;;;;;6240614;23;20161;-89
2023/03/16 03:20:38;;;;;;;52.30;8.17;;;;;;;;;;6239689;23;20253;-89
2023/03/16 03:23:45;;;;;;;26.53;8.87;;;;;;;;;;6239851;23;20150;-92
2023/03/16 03:26:52;;;;;;;39.83;7.87;;;;;;;;;;6239022;23;20245;-91
2023/03/16 03:29:58;;;;;;;18.37;8.00;;;;;;;;;;6239333;23;20178;-92
2023/03/16 03:33:06;;;;;;;22.73;8.83;;;;;;;;;;6240428;22;20170;-89
2023/03/16 03:36:12;;;;;;;15.17;8.07;;;;;;;;;;6239751;23;20196;-90
2023/03/16 03:39:19;;;;;;;15.87;7.47;;;;;;;;;;6240181;23;20155;-91
2023/03/16 03:42:27;;;;;;;14.73;7.60;;;;;;;;;;6241885;23;20169;-93
2023/03/16 03:45:33;;;;;;;17.23;8.07;;;;;;;;;;6241181;23;20289;-90
2023/03/16 03:48:40;;;;;;;24.40;8.57;;;;;;;;;;6238551;22;20493;-91
2023/03/16 03:51:45;;;;;;;16.83;8.17;;;;;;;;;;6241344;23;20582;-89
2023/03/16 03:54:54;;;;;;;15.93;8.27;;;;;;;;;;6240532;23;20210;-90
2023/03/16 03:58:00;;;;;;;18.40;8.97;;;;;;;;;;6241401;22;20154;-91
2023/03/16 04:01:13;;;;;;;46.20;9.00;;;;;;;;;;6239469;23;20194;-90
2023/03/16 04:04:20;;;;;;;18.50;8.33;;;;;;;;;;6241167;22;20181;-89
2023/03/16 04:07:25;;;;;;;21.60;9.67;;;;;;;;;;6241484;22;20605;-91
2023/03/16 04:10:35;;;;;;;21.97;9.80;;;;;;;;;;6242372;23;20154;-91
2023/03/16 04:13:44;;;;;;;22.83;9.83;;;;;;;;;;6244611;23;20206;-90
2023/03/16 04:16:50;;;;;;;21.90;9.23;;;;;;;;;;6241481;23;20337;-86
2023/03/16 04:20:00;;;;;;;19.00;8.20;;;;;;;;;;6240391;22;20174;-89
2023/03/16 04:23:08;;;;;;;21.80;8.73;;;;;;;;;;6240753;22;20174;-91
2023/03/16 04:26:16;;;;;;;18.13;9.30;;;;;;;;;;6240431;23;20186;-89
2023/03/16 04:29:24;;;;;;;18.67;9.00;;;;;;;;;;6239387;23;20289;-90
2023/03/16 04:32:30;;;;;;;21.10;9.40;;;;;;;;;;6239721;22;20187;-89
2023/03/16 04:35:40;;;;;;;20.03;9.37;;;;;;;;;;6239178;23;20158;-89
2023/03/16 04:38:47;;;;;;;21.47;9.10;;;;;;;;;;6239250;23;20239;-90
2023/03/16 04:41:53;;;;;;;19.20;9.37;;;;;;;;;;6240746;23;20194;-90
2023/03/16 04:45:00;;;;;;;18.27;9.53;;;;;;;;;;6240544;23;20166;-89
2023/03/16 04:48:06;;;;;;;24.57;9.37;;;;;;;;;;6240607;23;20170;-91
2023/03/16 04:51:12;;;;;;;19.43;9.57;;;;;;;;;;6240368;22;20189;-90
2023/03/16 04:54:24;;;;;;;24.17;10.50;;;;;;;;;;6240909;22;20214;-90
2023/03/16 04:57:31;;;;;;;18.50;9.07;;;;;;;;;;6242001;23;20242;-90
2023/03/16 05:00:37;;;;;;;20.87;9.93;;;;;;;;;;6241650;23;20193;-89
2023/03/16 05:03:48;;;;;;;23.87;9.80;;;;;;;;;;6241712;23;20163;-90
2023/03/16 05:06:54;;;;;;;26.17;10.03;;;;;;;;;;6241320;22;20231;-89
2023/03/16 05:10:06;;;;;;;27.53;11.77;;;;;;;;;;6241180;22;20163;-90
2023/03/16 05:13:11;;;;;;;24.07;10.53;;;;;;;;;;6242437;23;20170;-92
2023/03/16 05:16:17;;;;;;;21.53;10.17;;;;;;;;;;6241889;23;20169;-90
2023/03/16 05:19:24;;;;;;;22.10;9.43;;;;;;;;;;6240909;23;20175;-90
2023/03/16 05:22:29;;;;;;;22.33;9.73;;;;;;;;;;6242120;22;20174;-89
2023/03/16 05:25:52;;;;;;;23.13;10.77;;;;;;;;;;6241932;23;20167;-91
2023/03/16 05:29:00;;;;;;;28.07;11.70;;;;;;;;;;6243897;23;20158;-91
2023/03/16 05:32:09;;;;;;;21.10;10.37;;;;;;;;;;6244092;23;20182;-91
2023/03/16 05:35:15;;;;;;;21.87;10.17;;;;;;;;;;6242913;23;20162;-89
2023/03/16 05:38:21;;;;;;;17.77;9.03;;;;;;;;;;6243998;22;20165;-92
2023/03/16 05:41:30;;;;;;;17.87;8.60;;;;;;;;;;6245255;23;20198;-90
2023/03/16 05:44:47;;;;;;;19.80;9.50;;;;;;;;;;6243373;23;20187;-90
2023/03/16 05:48:00;;;;;;;17.63;7.97;;;;;;;;;;6243971;23;20163;-91
2023/03/16 05:51:07;;;;;;;18.07;8.83;;;;;;;;;;6242768;23;20263;-91
2023/03/16 05:54:12;;;;;;;17.17;8.33;;;;;;;;;;6243011;22;20166;-91
2023/03/16 05:57:25;;;;;;;21.87;9.67;;;;;;;;;;6241966;23;20162;-89
2023/03/16 06:00:31;;;;;;;17.37;8.67;;;;;;;;;;6241897;23;20193;-89
2023/03/16 06:03:50;;;;;;;20.40;9.80;;;;;;;;;;6241520;23;20174;-88
2023/03/16 06:06:59;;;;;;;18.57;9.80;;;;;;;;;;6241857;22;20262;-89
2023/03/16 06:10:07;;;;;;;18.23;9.23;;;;;;;;;;6243139;23;20484;-88
2023/03/16 06:13:14;;;;;;;21.60;9.73;;;;;;;;;;6245602;23;20177;-93
2023/03/16 06:16:19;;;;;;;19.37;8.93;;;;;;;;;;6244458;23;20186;-91
2023/03/16 06:19:25;;;;;;;18.23;8.93;;;;;;;;;;6242285;23;20233;-89
2023/03/16 06:22:35;;;;;;;15.13;8.10;;;;;;;;;;6242607;22;20290;-92
2023/03/16 06:25:41;;;;;;;19.67;9.37;;;;;;;;;;6243509;23;20174;-90
2023/03/16 06:28:50;;;;;;;23.90;9.80;;;;;;;;;;6242364;23;20170;-90
2023/03/16 06:31:55;;;;;;;19.80;9.80;;;;;;;;;;6243046;23;20163;-91
2023/03/16 06:38:36;;;;;;;16.00;8.33;;;;;;;;;;6243529;23;20167;-92
2023/03/16 06:41:47;;;;;;;19.00;8.73;;;;;;;;;;6243979;23;20190;-91
2023/03/16 06:44:56;;;;;;;19.73;9.20;;;;;;;;;;6244248;23;20174;-89
2023/03/16 06:48:02;;;;;;;17.10;9.50;;;;;;;;;;6243905;23;20249;-89
2023/03/16 06:51:07;;;;;;;16.53;7.93;;;;;;;;;;6239897;22;20247;-90
2023/03/16 06:54:14;;;;;;;16.53;7.20;;;;;;;;;;6237841;23;20170;-89
2023/03/16 06:57:19;;;;;;;17.77;8.90;;;;;;;;;;6242856;23;20162;-90
2023/03/16 07:00:26;;;;;;;19.70;10.33;;;;;;;;;;6242796;23;20163;-91
2023/03/16 07:03:33;;;;;;;19.53;8.90;;;;;;;;;;6242868;23;20173;-88
2023/03/16 07:06:51;;;;;;;17.07;8.70;;;;;;;;;;6244215;22;20167;-89
2023/03/16 07:09:57;;;;;;;17.00;8.10;;;;;;;;;;6243549;23;20162;-88
2023/03/16 07:13:04;;;;;;;19.43;8.30;;;;;;;;;;6244259;23;20150;-90
2023/03/16 07:16:11;;;;;;;16.30;7.60;;;;;;;;;;6244701;23;20171;-90
2023/03/16 07:19:18;;;;;;;13.77;7.10;;;;;;;;;;6245863;23;20208;-90
2023/03/16 07:22:23;;;;;;;13.97;7.93;;;;;;;;;;6244242;22;20197;-89
2023/03/16 07:25:30;;;;;;;14.70;8.17;;;;;;;;;;6244939;23;20170;-89
2023/03/16 07:28:35;;;;;;;16.10;7.97;;;;;;;;;;6246253;23;20166;-90
2023/03/16 07:31:45;;;;;;;15.47;8.47;;;;;;;;;;6246555;23;20187;-90
2023/03/16 07:34:59;;;;;;;15.13;7.97;;;;;;;;;;6245738;23;20166;-89
2023/03/16 07:38:11;;;;;;;14.03;7.13;;;;;;;;;;6244966;23;20235;-90
2023/03/16 07:41:18;;;;;;;15.03;8.10;;;;;;;;;;6229414;23;20194;-90
2023/03/16 07:44:24;;;;;;;17.50;7.90;;;;;;;;;;6247949;23;20167;-91
2023/03/16 07:47:37;;;;;;;24.23;9.97;;;;;;;;;;6244965;23;20238;-89
2023/03/16 07:51:06;;;;;;;16.43;8.10;;;;;;;;;;6245976;22;20705;-89
2023/03/16 07:54:26;;;;;;;19.10;8.43;;;;;;;;;;6231649;23;20166;-88
2023/03/16 07:57:32;;;;;;;16.67;7.00;;;;;;;;;;6244632;23;20275;-90
2023/03/16 08:00:42;;;;;;;15.97;7.23;;;;;;;;;;6243036;23;20166;-89
2023/03/16 08:03:53;;;;;;;14.30;6.70;;;;;;;;;;6245140;22;20189;-86
2023/03/16 08:07:00;;;;;;;13.70;6.30;;;;;;;;;;6244337;22;20167;-89
2023/03/16 08:10:17;;;;;;;13.27;5.63;;;;;;;;;;6245293;22;20157;-92
2023/03/16 08:13:34;;;;;;;17.33;6.30;;;;;;;;;;6243551;23;20190;-92
2023/03/16 08:16:40;;;;;;;13.50;6.00;;;;;;;;;;6243694;23;20197;-89
2023/03/16 08:19:47;;;;;;;11.97;5.70;;;;;;;;;;6244334;22;20233;-91
2023/03/16 08:22:53;;;;;;;16.70;6.37;;;;;;;;;;6244432;23;20318;-89
2023/03/16 08:26:08;;;;;;;11.43;6.37;;;;;;;;;;6244914;23;20170;-88
2023/03/16 08:29:13;;;;;;;8.30;4.90;;;;;;;;;;6243050;23;20599;-87
2023/03/16 08:32:19;;;;;;;12.40;5.27;;;;;;;;;;6243998;23;20210;-90
2023/03/16 08:35:27;;;;;;;13.60;5.70;;;;;;;;;;6244707;23;20205;-91
2023/03/16 08:38:32;;;;;;;14.63;5.30;;;;;;;;;;6242854;23;20175;-88
2023/03/16 08:41:45;;;;;;;11.67;5.17;;;;;;;;;;6244086;23;20193;-89
2023/03/16 08:45:08;;;;;;;13.10;5.50;;;;;;;;;;6243273;23;20167;-92
2023/03/16 08:48:15;;;;;;;10.17;4.90;;;;;;;;;;6243920;23;20175;-90
2023/03/16 08:51:29;;;;;;;12.77;5.33;;;;;;;;;;6243622;23;20218;-89
2023/03/16 08:54:35;;;;;;;9.50;5.27;;;;;;;;;;6244776;23;20202;-90
2023/03/16 08:57:43;;;;;;;9.53;4.73;;;;;;;;;;6245753;23;20171;-89
2023/03/16 09:00:52;;;;;;;9.20;4.50;;;;;;;;;;6251938;23;20182;-90
2023/03/16 09:04:02;;;;;;;11.03;4.80;;;;;;;;;;6244284;23;20191;-90
2023/03/16 09:07:10;;;;;;;16.37;4.73;;;;;;;;;;6243718;23;20321;-88
2023/03/16 09:10:17;;;;;;;12.67;3.77;;;;;;;;;;6244764;23;20169;-89
2023/03/16 09:13:27;;;;;;;13.57;4.33;;;;;;;;;;6242281;23;20166;-90
2023/03/16 09:16:33;;;;;;;9.63;4.40;;;;;;;;;;6241806;23;20190;-91
2023/03/16 09:19:41;;;;;;;9.13;4.00;;;;;;;;;;6242712;23;20175;-89
2023/03/16 09:22:48;;;;;;;11.40;3.83;;;;;;;;;;6243217;22;20260;-88
2023/03/16 09:25:54;;;;;;;9.07;4.40;;;;;;;;;;6242471;23;20174;-92
2023/03/16 09:29:00;;;;;;;10.17;4.20;;;;;;;;;;6245766;23;20190;-89
2023/03/16 09:32:06;;;;;;;9.63;4.57;;;;;;;;;;6244012;23;20154;-91
2023/03/16 09:35:11;;;;;;;10.47;3.90;;;;;;;;;;6242589;23;20166;-88
2023/03/16 09:38:18;;;;;;;7.60;3.30;;;;;;;;;;6243186;23;20175;-89
2023/03/16 09:41:32;;;;;;;4.87;3.10;;;;;;;;;;6242231;23;20166;-91
2023/03/16 09:44:44;;;;;;;6.20;3.23;;;;;;;;;;6246588;23;20264;-89
2023/03/16 09:47:50;;;;;;;6.57;2.80;;;;;;;;;;6245827;23;20151;-88
2023/03/16 09:50:57;;;;;;;6.70;3.53;;;;;;;;;;6242863;22;20221;-89
2023/03/16 09:54:05;;;;;;;15.90;3.57;;;;;;;;;;6241217;23;20174;-89
2023/03/16 09:57:14;;;;;;;15.15;3.38;;;;;;;;;;6243117;23;20171;-90
2023/03/16 10:07:53;;;;;;;5.88;2.60;;;;;;;;;;6260518;23;20250;-92
2023/03/16 10:11:29;;;;;;;5.72;2.72;;;;;;;;;;6244355;23;20170;-91
2023/03/16 10:15:14;;;;;;;3.70;2.30;;;;;;;;;;6127477;23;20168;-89
2023/03/16 10:18:34;;;;;;;5.38;2.30;;;;;;;;;;6123559;23;20185;-91
2023/03/16 10:21:56;;;;;;;7.18;2.25;;;;;;;;;;6162625;22;20223;-91
2023/03/16 23:23:00;;;;;;;11.00;3.70;;;;;;;;;;6108898;22;3602027;-91
2023/03/16 23:26:06;;;;;;;18.67;3.53;;;;;;;;;;6243622;23;20166;-91
2023/03/16 23:29:12;;;;;;;7.17;3.13;;;;;;;;;;6244876;22;20222;-91
2023/03/16 23:32:18;;;;;;;9.87;3.90;;;;;;;;;;6245327;22;20190;-92
2023/03/16 23:35:26;;;;;;;9.10;3.83;;;;;;;;;;6247326;22;20205;-93
2023/03/16 23:38:33;;;;;;;10.63;4.30;;;;;;;;;;6247654;23;20169;-92
2023/03/16 23:41:39;;;;;;;13.07;3.93;;;;;;;;;;6245726;23;20191;-90
2023/03/16 23:44:44;;;;;;;11.03;4.20;;;;;;;;;;6246078;22;20147;-91
2023/03/16 23:47:50;;;;;;;11.30;3.87;;;;;;;;;;6245941;23;20271;-92
2023/03/16 23:50:57;;;;;;;8.77;3.90;;;;;;;;;;6246620;22;20771;-94
2023/03/16 23:54:12;;;;;;;12.40;3.87;;;;;;;;;;6245540;23;20166;-92
2023/03/16 23:57:18;;;;;;;11.27;3.90;;;;;;;;;;6244648;22;20190;-91
